sensor_id;sensor_type;location;lat;lon;timestamp;P1;durP1;ratioP1;P2;durP2;ratioP2
20511;SDS011;10414;52.074;5.126;2022-07-29T00:01:33;4.72;;;1.30;;
20511;SDS011;10414;52.074;5.126;2022-07-29T00:04:00;4.88;;;1.33;;
20511;SDS011;10414;52.074;5.126;2022-07-29T00:06:27;5.20;;;1.40;;
20511;SDS011;10414;52.074;5.126;2022-07-29T00:08:55;5.53;;;1.60;;
20511;SDS011;10414;52.074;5.126;2022-07-29T00:11:22;5.28;;;1.42;;
20511;SDS011;10414;52.074;5.126;2022-07-29T00:13:49;5.95;;;1.70;;
20511;SDS011;10414;52.074;5.126;2022-07-29T00:16:16;4.53;;;1.20;;
20511;SDS011;10414;52.074;5.126;2022-07-29T00:18:43;7.47;;;1.70;;
20511;SDS011;10414;52.074;5.126;2022-07-29T00:21:10;3.45;;;1.20;;
20511;SDS011;10414;52.074;5.126;2022-07-29T00:23:37;3.28;;;1.42;;
20511;SDS011;10414;52.074;5.126;2022-07-29T00:26:05;6.38;;;1.63;;
20511;SDS011;10414;52.074;5.126;2022-07-29T00:28:32;5.95;;;1.38;;
20511;SDS011;10414;52.074;5.126;2022-07-29T00:30:59;5.47;;;1.40;;
20511;SDS011;10414;52.074;5.126;2022-07-29T00:33:26;5.22;;;1.45;;
20511;SDS011;10414;52.074;5.126;2022-07-29T00:35:54;3.72;;;1.38;;
20511;SDS011;10414;52.074;5.126;2022-07-29T00:38:20;5.97;;;1.40;;
20511;SDS011;10414;52.074;5.126;2022-07-29T00:40:47;4.57;;;1.55;;
20511;SDS011;10414;52.074;5.126;2022-07-29T00:43:16;5.97;;;1.40;;
20511;SDS011;10414;52.074;5.126;2022-07-29T00:45:43;4.93;;;1.38;;
20511;SDS011;10414;52.074;5.126;2022-07-29T00:48:10;4.75;;;1.50;;
20511;SDS011;10414;52.074;5.126;2022-07-29T00:50:38;5.63;;;1.85;;
20511;SDS011;10414;52.074;5.126;2022-07-29T00:53:05;4.80;;;1.58;;
20511;SDS011;10414;52.074;5.126;2022-07-29T00:55:33;3.45;;;1.50;;
20511;SDS011;10414;52.074;5.126;2022-07-29T00:58:01;3.70;;;1.38;;
20511;SDS011;10414;52.074;5.126;2022-07-29T01:00:30;3.55;;;1.45;;
20511;SDS011;10414;52.074;5.126;2022-07-29T01:02:57;5.50;;;1.60;;
20511;SDS011;10414;52.074;5.126;2022-07-29T01:05:25;4.25;;;1.50;;
20511;SDS011;10414;52.074;5.126;2022-07-29T01:07:53;3.70;;;1.20;;
20511;SDS011;10414;52.074;5.126;2022-07-29T01:10:21;4.00;;;1.52;;
20511;SDS011;10414;52.074;5.126;2022-07-29T01:12:50;4.18;;;1.45;;
20511;SDS011;10414;52.074;5.126;2022-07-29T01:15:18;3.83;;;1.30;;
20511;SDS011;10414;52.074;5.126;2022-07-29T01:17:50;5.50;;;1.52;;
20511;SDS011;10414;52.074;5.126;2022-07-29T01:20:25;4.18;;;1.52;;
20511;SDS011;10414;52.074;5.126;2022-07-29T01:26:21;5.90;;;1.73;;
20511;SDS011;10414;52.074;5.126;2022-07-29T01:29:03;4.65;;;1.45;;
20511;SDS011;10414;52.074;5.126;2022-07-29T01:31:35;4.38;;;1.55;;
20511;SDS011;10414;52.074;5.126;2022-07-29T01:34:08;4.00;;;1.30;;
20511;SDS011;10414;52.074;5.126;2022-07-29T01:36:43;3.53;;;1.40;;
20511;SDS011;10414;52.074;5.126;2022-07-29T01:39:17;4.25;;;1.40;;
20511;SDS011;10414;52.074;5.126;2022-07-29T01:41:48;5.93;;;1.50;;
20511;SDS011;10414;52.074;5.126;2022-07-29T01:44:26;5.25;;;1.63;;
20511;SDS011;10414;52.074;5.126;2022-07-29T01:46:58;4.32;;;1.40;;
20511;SDS011;10414;52.074;5.126;2022-07-29T01:49:29;5.38;;;1.55;;
20511;SDS011;10414;52.074;5.126;2022-07-29T01:52:00;5.38;;;1.60;;
20511;SDS011;10414;52.074;5.126;2022-07-29T01:54:32;4.03;;;1.40;;
20511;SDS011;10414;52.074;5.126;2022-07-29T01:57:09;5.82;;;1.50;;
20511;SDS011;10414;52.074;5.126;2022-07-29T02:02:09;4.10;;;1.13;;
20511;SDS011;10414;52.074;5.126;2022-07-29T02:04:37;4.15;;;1.63;;
20511;SDS011;10414;52.074;5.126;2022-07-29T02:07:07;4.85;;;1.45;;
20511;SDS011;10414;52.074;5.126;2022-07-29T02:09:39;3.22;;;1.38;;
20511;SDS011;10414;52.074;5.126;2022-07-29T02:12:08;4.78;;;1.63;;
20511;SDS011;10414;52.074;5.126;2022-07-29T02:14:38;3.92;;;1.50;;
20511;SDS011;10414;52.074;5.126;2022-07-29T02:17:10;5.82;;;1.90;;
20511;SDS011;10414;52.074;5.126;2022-07-29T02:19:38;6.60;;;1.70;;
20511;SDS011;10414;52.074;5.126;2022-07-29T02:22:08;6.90;;;1.73;;
20511;SDS011;10414;52.074;5.126;2022-07-29T02:24:36;5.88;;;1.70;;
20511;SDS011;10414;52.074;5.126;2022-07-29T02:27:05;4.53;;;1.60;;
20511;SDS011;10414;52.074;5.126;2022-07-29T02:29:33;6.35;;;1.85;;
20511;SDS011;10414;52.074;5.126;2022-07-29T02:32:03;6.68;;;1.77;;
20511;SDS011;10414;52.074;5.126;2022-07-29T02:34:32;6.30;;;1.48;;
20511;SDS011;10414;52.074;5.126;2022-07-29T02:37:01;6.00;;;1.80;;
20511;SDS011;10414;52.074;5.126;2022-07-29T02:39:29;6.15;;;2.05;;
20511;SDS011;10414;52.074;5.126;2022-07-29T02:41:58;4.55;;;1.48;;
20511;SDS011;10414;52.074;5.126;2022-07-29T02:44:29;6.40;;;1.95;;
20511;SDS011;10414;52.074;5.126;2022-07-29T02:46:58;3.45;;;1.48;;
20511;SDS011;10414;52.074;5.126;2022-07-29T02:49:34;3.95;;;1.60;;
20511;SDS011;10414;52.074;5.126;2022-07-29T02:52:04;4.75;;;1.60;;
20511;SDS011;10414;52.074;5.126;2022-07-29T02:54:37;6.03;;;1.63;;
20511;SDS011;10414;52.074;5.126;2022-07-29T02:57:09;6.47;;;1.73;;
20511;SDS011;10414;52.074;5.126;2022-07-29T02:59:41;7.70;;;1.80;;
20511;SDS011;10414;52.074;5.126;2022-07-29T03:02:12;4.03;;;1.60;;
20511;SDS011;10414;52.074;5.126;2022-07-29T03:04:40;4.95;;;1.80;;
20511;SDS011;10414;52.074;5.126;2022-07-29T03:07:09;6.15;;;1.95;;
20511;SDS011;10414;52.074;5.126;2022-07-29T03:09:40;3.72;;;1.80;;
20511;SDS011;10414;52.074;5.126;2022-07-29T03:12:08;7.43;;;1.98;;
20511;SDS011;10414;52.074;5.126;2022-07-29T03:14:35;4.80;;;1.90;;
20511;SDS011;10414;52.074;5.126;2022-07-29T03:17:04;3.67;;;1.70;;
20511;SDS011;10414;52.074;5.126;2022-07-29T03:19:33;5.38;;;1.65;;
20511;SDS011;10414;52.074;5.126;2022-07-29T03:22:01;7.25;;;1.77;;
20511;SDS011;10414;52.074;5.126;2022-07-29T03:24:29;5.35;;;1.77;;
20511;SDS011;10414;52.074;5.126;2022-07-29T03:26:57;3.65;;;1.65;;
20511;SDS011;10414;52.074;5.126;2022-07-29T03:29:24;3.75;;;1.77;;
20511;SDS011;10414;52.074;5.126;2022-07-29T03:31:52;6.10;;;1.60;;
20511;SDS011;10414;52.074;5.126;2022-07-29T03:34:19;6.95;;;1.90;;
20511;SDS011;10414;52.074;5.126;2022-07-29T03:36:48;5.95;;;2.05;;
20511;SDS011;10414;52.074;5.126;2022-07-29T03:39:16;6.60;;;2.10;;
20511;SDS011;10414;52.074;5.126;2022-07-29T03:41:46;4.05;;;1.67;;
20511;SDS011;10414;52.074;5.126;2022-07-29T03:44:16;5.85;;;1.98;;
20511;SDS011;10414;52.074;5.126;2022-07-29T03:46:44;4.10;;;1.98;;
20511;SDS011;10414;52.074;5.126;2022-07-29T03:49:15;6.05;;;2.00;;
20511;SDS011;10414;52.074;5.126;2022-07-29T03:51:43;4.60;;;1.83;;
20511;SDS011;10414;52.074;5.126;2022-07-29T03:54:11;4.32;;;2.00;;
20511;SDS011;10414;52.074;5.126;2022-07-29T03:56:43;6.25;;;2.35;;
20511;SDS011;10414;52.074;5.126;2022-07-29T03:59:12;7.38;;;1.88;;
20511;SDS011;10414;52.074;5.126;2022-07-29T04:01:41;5.00;;;1.83;;
20511;SDS011;10414;52.074;5.126;2022-07-29T04:04:08;6.07;;;2.05;;
20511;SDS011;10414;52.074;5.126;2022-07-29T04:06:39;7.40;;;1.65;;
20511;SDS011;10414;52.074;5.126;2022-07-29T04:09:06;4.88;;;1.65;;
20511;SDS011;10414;52.074;5.126;2022-07-29T04:11:36;5.65;;;2.03;;
20511;SDS011;10414;52.074;5.126;2022-07-29T04:14:04;5.53;;;1.73;;
20511;SDS011;10414;52.074;5.126;2022-07-29T04:16:31;4.85;;;1.88;;
20511;SDS011;10414;52.074;5.126;2022-07-29T04:18:59;5.50;;;2.10;;
20511;SDS011;10414;52.074;5.126;2022-07-29T04:21:26;4.65;;;1.80;;
20511;SDS011;10414;52.074;5.126;2022-07-29T04:23:53;4.10;;;1.77;;
20511;SDS011;10414;52.074;5.126;2022-07-29T04:26:20;5.65;;;1.80;;
20511;SDS011;10414;52.074;5.126;2022-07-29T04:28:48;4.07;;;1.65;;
20511;SDS011;10414;52.074;5.126;2022-07-29T04:31:15;7.47;;;2.05;;
20511;SDS011;10414;52.074;5.126;2022-07-29T04:33:42;6.40;;;1.88;;
20511;SDS011;10414;52.074;5.126;2022-07-29T04:36:09;7.38;;;2.03;;
20511;SDS011;10414;52.074;5.126;2022-07-29T04:38:37;4.95;;;1.60;;
20511;SDS011;10414;52.074;5.126;2022-07-29T04:41:04;5.07;;;1.88;;
20511;SDS011;10414;52.074;5.126;2022-07-29T04:43:33;4.72;;;1.90;;
20511;SDS011;10414;52.074;5.126;2022-07-29T04:46:01;5.32;;;1.95;;
20511;SDS011;10414;52.074;5.126;2022-07-29T04:48:29;6.15;;;1.73;;
20511;SDS011;10414;52.074;5.126;2022-07-29T04:50:56;5.95;;;1.80;;
20511;SDS011;10414;52.074;5.126;2022-07-29T04:53:23;6.72;;;2.05;;
20511;SDS011;10414;52.074;5.126;2022-07-29T04:55:50;5.20;;;1.85;;
20511;SDS011;10414;52.074;5.126;2022-07-29T04:58:17;4.78;;;1.85;;
20511;SDS011;10414;52.074;5.126;2022-07-29T05:00:44;5.97;;;1.73;;
20511;SDS011;10414;52.074;5.126;2022-07-29T05:03:13;5.03;;;1.80;;
20511;SDS011;10414;52.074;5.126;2022-07-29T05:05:39;4.35;;;1.85;;
20511;SDS011;10414;52.074;5.126;2022-07-29T05:08:07;6.75;;;1.90;;
20511;SDS011;10414;52.074;5.126;2022-07-29T05:10:34;4.18;;;1.85;;
20511;SDS011;10414;52.074;5.126;2022-07-29T05:13:03;5.32;;;1.92;;
20511;SDS011;10414;52.074;5.126;2022-07-29T05:15:31;6.50;;;1.75;;
20511;SDS011;10414;52.074;5.126;2022-07-29T05:17:59;4.53;;;1.58;;
20511;SDS011;10414;52.074;5.126;2022-07-29T05:20:27;5.60;;;1.92;;
20511;SDS011;10414;52.074;5.126;2022-07-29T05:22:55;8.45;;;2.20;;
20511;SDS011;10414;52.074;5.126;2022-07-29T05:25:22;6.10;;;1.90;;
20511;SDS011;10414;52.074;5.126;2022-07-29T05:27:50;4.30;;;1.80;;
20511;SDS011;10414;52.074;5.126;2022-07-29T05:30:17;4.63;;;1.75;;
20511;SDS011;10414;52.074;5.126;2022-07-29T05:32:44;5.93;;;2.20;;
20511;SDS011;10414;52.074;5.126;2022-07-29T05:35:12;7.50;;;1.98;;
20511;SDS011;10414;52.074;5.126;2022-07-29T05:37:41;3.78;;;1.73;;
20511;SDS011;10414;52.074;5.126;2022-07-29T05:40:08;4.65;;;1.92;;
20511;SDS011;10414;52.074;5.126;2022-07-29T05:42:37;4.80;;;1.98;;
20511;SDS011;10414;52.074;5.126;2022-07-29T05:45:04;4.18;;;1.98;;
20511;SDS011;10414;52.074;5.126;2022-07-29T05:47:32;4.53;;;2.10;;
20511;SDS011;10414;52.074;5.126;2022-07-29T05:50:02;6.82;;;2.20;;
20511;SDS011;10414;52.074;5.126;2022-07-29T05:52:34;4.78;;;1.90;;
20511;SDS011;10414;52.074;5.126;2022-07-29T05:55:05;6.82;;;2.30;;
20511;SDS011;10414;52.074;5.126;2022-07-29T05:57:33;4.18;;;2.05;;
20511;SDS011;10414;52.074;5.126;2022-07-29T06:00:03;4.07;;;2.05;;
20511;SDS011;10414;52.074;5.126;2022-07-29T06:02:31;4.57;;;2.00;;
20511;SDS011;10414;52.074;5.126;2022-07-29T06:04:58;5.53;;;1.67;;
20511;SDS011;10414;52.074;5.126;2022-07-29T06:07:24;5.45;;;1.90;;
20511;SDS011;10414;52.074;5.126;2022-07-29T06:09:51;3.40;;;1.60;;
20511;SDS011;10414;52.074;5.126;2022-07-29T06:12:20;6.68;;;2.10;;
20511;SDS011;10414;52.074;5.126;2022-07-29T06:14:47;5.13;;;1.50;;
20511;SDS011;10414;52.074;5.126;2022-07-29T06:17:15;4.70;;;1.80;;
20511;SDS011;10414;52.074;5.126;2022-07-29T06:19:42;6.00;;;2.15;;
20511;SDS011;10414;52.074;5.126;2022-07-29T06:22:09;3.90;;;1.70;;
20511;SDS011;10414;52.074;5.126;2022-07-29T06:24:36;8.00;;;1.83;;
20511;SDS011;10414;52.074;5.126;2022-07-29T06:29:35;4.47;;;1.90;;
20511;SDS011;10414;52.074;5.126;2022-07-29T06:32:02;5.70;;;1.98;;
20511;SDS011;10414;52.074;5.126;2022-07-29T06:34:29;4.95;;;1.90;;
20511;SDS011;10414;52.074;5.126;2022-07-29T06:36:56;5.30;;;1.67;;
20511;SDS011;10414;52.074;5.126;2022-07-29T06:39:23;5.47;;;1.80;;
20511;SDS011;10414;52.074;5.126;2022-07-29T06:41:50;4.47;;;1.77;;
20511;SDS011;10414;52.074;5.126;2022-07-29T06:44:17;5.07;;;2.00;;
20511;SDS011;10414;52.074;5.126;2022-07-29T06:46:46;6.43;;;1.98;;
20511;SDS011;10414;52.074;5.126;2022-07-29T06:49:14;4.00;;;1.80;;
20511;SDS011;10414;52.074;5.126;2022-07-29T06:51:42;6.53;;;1.67;;
20511;SDS011;10414;52.074;5.126;2022-07-29T06:54:09;8.32;;;1.90;;
20511;SDS011;10414;52.074;5.126;2022-07-29T06:56:36;6.80;;;2.08;;
20511;SDS011;10414;52.074;5.126;2022-07-29T06:59:06;5.30;;;1.75;;
20511;SDS011;10414;52.074;5.126;2022-07-29T07:01:34;4.90;;;1.98;;
20511;SDS011;10414;52.074;5.126;2022-07-29T07:04:04;5.60;;;2.03;;
20511;SDS011;10414;52.074;5.126;2022-07-29T07:09:00;7.38;;;1.88;;
20511;SDS011;10414;52.074;5.126;2022-07-29T07:11:27;5.80;;;2.30;;
20511;SDS011;10414;52.074;5.126;2022-07-29T07:13:54;4.38;;;2.00;;
20511;SDS011;10414;52.074;5.126;2022-07-29T07:16:21;6.55;;;1.70;;
20511;SDS011;10414;52.074;5.126;2022-07-29T07:18:48;6.22;;;1.92;;
20511;SDS011;10414;52.074;5.126;2022-07-29T07:21:16;4.63;;;1.70;;
20511;SDS011;10414;52.074;5.126;2022-07-29T07:23:43;5.82;;;1.80;;
20511;SDS011;10414;52.074;5.126;2022-07-29T07:26:10;5.20;;;1.83;;
20511;SDS011;10414;52.074;5.126;2022-07-29T07:28:37;5.57;;;1.95;;
20511;SDS011;10414;52.074;5.126;2022-07-29T07:31:03;7.75;;;1.70;;
20511;SDS011;10414;52.074;5.126;2022-07-29T07:33:31;7.25;;;1.70;;
20511;SDS011;10414;52.074;5.126;2022-07-29T07:35:58;7.72;;;1.98;;
20511;SDS011;10414;52.074;5.126;2022-07-29T07:38:26;6.63;;;2.17;;
20511;SDS011;10414;52.074;5.126;2022-07-29T07:40:53;4.72;;;1.88;;
20511;SDS011;10414;52.074;5.126;2022-07-29T07:43:20;8.82;;;2.10;;
20511;SDS011;10414;52.074;5.126;2022-07-29T07:45:47;5.45;;;1.95;;
20511;SDS011;10414;52.074;5.126;2022-07-29T07:48:14;4.47;;;1.80;;
20511;SDS011;10414;52.074;5.126;2022-07-29T07:50:41;4.82;;;1.77;;
20511;SDS011;10414;52.074;5.126;2022-07-29T07:53:09;3.67;;;1.70;;
20511;SDS011;10414;52.074;5.126;2022-07-29T07:55:40;4.22;;;1.65;;
20511;SDS011;10414;52.074;5.126;2022-07-29T07:58:08;4.03;;;1.67;;
20511;SDS011;10414;52.074;5.126;2022-07-29T08:00:35;6.28;;;2.03;;
20511;SDS011;10414;52.074;5.126;2022-07-29T08:03:02;5.43;;;1.67;;
20511;SDS011;10414;52.074;5.126;2022-07-29T08:05:29;3.97;;;1.90;;
20511;SDS011;10414;52.074;5.126;2022-07-29T08:07:58;5.65;;;2.20;;
20511;SDS011;10414;52.074;5.126;2022-07-29T08:10:25;5.43;;;2.05;;
20511;SDS011;10414;52.074;5.126;2022-07-29T08:13:11;7.72;;;1.70;;
20511;SDS011;10414;52.074;5.126;2022-07-29T08:15:38;8.68;;;2.13;;
20511;SDS011;10414;52.074;5.126;2022-07-29T08:18:06;5.57;;;1.95;;
20511;SDS011;10414;52.074;5.126;2022-07-29T08:20:33;3.95;;;1.58;;
20511;SDS011;10414;52.074;5.126;2022-07-29T08:23:01;6.85;;;2.00;;
20511;SDS011;10414;52.074;5.126;2022-07-29T08:25:29;5.30;;;1.77;;
20511;SDS011;10414;52.074;5.126;2022-07-29T08:27:56;5.10;;;2.00;;
20511;SDS011;10414;52.074;5.126;2022-07-29T08:30:24;5.28;;;2.08;;
20511;SDS011;10414;52.074;5.126;2022-07-29T08:32:51;4.53;;;1.80;;
20511;SDS011;10414;52.074;5.126;2022-07-29T08:35:19;6.82;;;1.80;;
20511;SDS011;10414;52.074;5.126;2022-07-29T08:37:46;6.40;;;2.00;;
20511;SDS011;10414;52.074;5.126;2022-07-29T08:40:13;6.72;;;1.95;;
20511;SDS011;10414;52.074;5.126;2022-07-29T08:42:40;7.95;;;2.22;;
20511;SDS011;10414;52.074;5.126;2022-07-29T08:45:08;5.85;;;2.20;;
20511;SDS011;10414;52.074;5.126;2022-07-29T08:47:37;5.35;;;1.52;;
20511;SDS011;10414;52.074;5.126;2022-07-29T08:50:06;3.95;;;1.88;;
20511;SDS011;10414;52.074;5.126;2022-07-29T08:52:35;8.00;;;2.00;;
20511;SDS011;10414;52.074;5.126;2022-07-29T08:55:03;6.82;;;2.20;;
20511;SDS011;10414;52.074;5.126;2022-07-29T08:57:31;7.22;;;1.95;;
20511;SDS011;10414;52.074;5.126;2022-07-29T09:00:00;7.40;;;1.73;;
20511;SDS011;10414;52.074;5.126;2022-07-29T09:02:29;6.63;;;2.03;;
20511;SDS011;10414;52.074;5.126;2022-07-29T09:05:03;6.50;;;2.13;;
20511;SDS011;10414;52.074;5.126;2022-07-29T09:07:31;6.07;;;2.20;;
20511;SDS011;10414;52.074;5.126;2022-07-29T09:09:58;8.02;;;2.28;;
20511;SDS011;10414;52.074;5.126;2022-07-29T09:12:25;5.93;;;2.30;;
20511;SDS011;10414;52.074;5.126;2022-07-29T09:14:52;4.97;;;2.10;;
20511;SDS011;10414;52.074;5.126;2022-07-29T09:17:32;6.57;;;2.40;;
20511;SDS011;10414;52.074;5.126;2022-07-29T09:20:09;6.22;;;2.00;;
20511;SDS011;10414;52.074;5.126;2022-07-29T09:22:38;4.18;;;1.90;;
20511;SDS011;10414;52.074;5.126;2022-07-29T09:25:05;7.68;;;1.90;;
20511;SDS011;10414;52.074;5.126;2022-07-29T09:27:34;5.27;;;2.40;;
20511;SDS011;10414;52.074;5.126;2022-07-29T09:30:02;6.35;;;2.53;;
20511;SDS011;10414;52.074;5.126;2022-07-29T09:32:31;8.32;;;2.60;;
20511;SDS011;10414;52.074;5.126;2022-07-29T09:35:16;5.40;;;2.38;;
20511;SDS011;10414;52.074;5.126;2022-07-29T09:37:44;8.30;;;2.60;;
20511;SDS011;10414;52.074;5.126;2022-07-29T09:40:13;6.40;;;1.70;;
20511;SDS011;10414;52.074;5.126;2022-07-29T09:42:41;6.82;;;2.60;;
20511;SDS011;10414;52.074;5.126;2022-07-29T09:45:09;6.38;;;2.17;;
20511;SDS011;10414;52.074;5.126;2022-07-29T09:47:46;3.28;;;1.90;;
20511;SDS011;10414;52.074;5.126;2022-07-29T09:50:15;4.57;;;2.13;;
20511;SDS011;10414;52.074;5.126;2022-07-29T09:52:45;7.85;;;2.17;;
20511;SDS011;10414;52.074;5.126;2022-07-29T09:55:13;6.93;;;2.20;;
20511;SDS011;10414;52.074;5.126;2022-07-29T09:57:40;6.05;;;2.30;;
20511;SDS011;10414;52.074;5.126;2022-07-29T10:00:09;3.92;;;2.22;;
20511;SDS011;10414;52.074;5.126;2022-07-29T10:02:39;6.43;;;2.17;;
20511;SDS011;10414;52.074;5.126;2022-07-29T10:05:17;7.57;;;2.17;;
20511;SDS011;10414;52.074;5.126;2022-07-29T10:07:46;5.82;;;2.22;;
20511;SDS011;10414;52.074;5.126;2022-07-29T10:10:18;3.40;;;1.55;;
20511;SDS011;10414;52.074;5.126;2022-07-29T10:12:51;5.95;;;2.28;;
20511;SDS011;10414;52.074;5.126;2022-07-29T10:15:21;5.45;;;2.10;;
20511;SDS011;10414;52.074;5.126;2022-07-29T10:17:49;7.80;;;2.38;;
20511;SDS011;10414;52.074;5.126;2022-07-29T10:20:18;7.45;;;2.38;;
20511;SDS011;10414;52.074;5.126;2022-07-29T10:22:46;9.77;;;2.90;;
20511;SDS011;10414;52.074;5.126;2022-07-29T10:25:14;4.72;;;1.92;;
20511;SDS011;10414;52.074;5.126;2022-07-29T10:27:45;6.30;;;2.38;;
20511;SDS011;10414;52.074;5.126;2022-07-29T10:30:14;7.07;;;2.33;;
20511;SDS011;10414;52.074;5.126;2022-07-29T10:32:47;6.50;;;2.05;;
20511;SDS011;10414;52.074;5.126;2022-07-29T10:35:38;5.95;;;2.28;;
20511;SDS011;10414;52.074;5.126;2022-07-29T10:38:17;4.82;;;2.00;;
20511;SDS011;10414;52.074;5.126;2022-07-29T10:40:57;6.60;;;2.40;;
20511;SDS011;10414;52.074;5.126;2022-07-29T10:43:50;4.68;;;2.05;;
20511;SDS011;10414;52.074;5.126;2022-07-29T10:46:18;9.27;;;2.42;;
20511;SDS011;10414;52.074;5.126;2022-07-29T10:54:36;6.90;;;2.15;;
20511;SDS011;10414;52.074;5.126;2022-07-29T10:57:22;4.97;;;2.22;;
20511;SDS011;10414;52.074;5.126;2022-07-29T11:02:57;5.80;;;1.90;;
20511;SDS011;10414;52.074;5.126;2022-07-29T11:05:26;4.50;;;2.22;;
20511;SDS011;10414;52.074;5.126;2022-07-29T11:10:51;5.13;;;2.40;;
20511;SDS011;10414;52.074;5.126;2022-07-29T11:16:12;10.23;;;2.28;;
20511;SDS011;10414;52.074;5.126;2022-07-29T11:21:41;11.23;;;2.70;;
20511;SDS011;10414;52.074;5.126;2022-07-29T11:24:13;9.02;;;2.40;;
20511;SDS011;10414;52.074;5.126;2022-07-29T11:26:41;6.45;;;2.95;;
20511;SDS011;10414;52.074;5.126;2022-07-29T11:29:15;6.00;;;2.55;;
20511;SDS011;10414;52.074;5.126;2022-07-29T11:31:46;8.93;;;2.30;;
20511;SDS011;10414;52.074;5.126;2022-07-29T11:34:20;6.30;;;2.35;;
20511;SDS011;10414;52.074;5.126;2022-07-29T11:39:43;8.13;;;2.72;;
20511;SDS011;10414;52.074;5.126;2022-07-29T11:45:12;7.72;;;2.35;;
20511;SDS011;10414;52.074;5.126;2022-07-29T11:47:41;7.60;;;2.30;;
20511;SDS011;10414;52.074;5.126;2022-07-29T11:50:15;6.38;;;2.15;;
20511;SDS011;10414;52.074;5.126;2022-07-29T11:52:52;5.82;;;2.70;;
20511;SDS011;10414;52.074;5.126;2022-07-29T11:55:20;6.20;;;2.53;;
20511;SDS011;10414;52.074;5.126;2022-07-29T11:57:49;5.85;;;2.30;;
20511;SDS011;10414;52.074;5.126;2022-07-29T12:00:22;6.18;;;2.22;;
20511;SDS011;10414;52.074;5.126;2022-07-29T12:02:50;9.73;;;2.80;;
20511;SDS011;10414;52.074;5.126;2022-07-29T12:05:17;6.20;;;2.45;;
20511;SDS011;10414;52.074;5.126;2022-07-29T12:07:45;7.47;;;2.33;;
20511;SDS011;10414;52.074;5.126;2022-07-29T12:10:13;6.13;;;1.98;;
20511;SDS011;10414;52.074;5.126;2022-07-29T12:12:48;5.25;;;2.40;;
20511;SDS011;10414;52.074;5.126;2022-07-29T12:15:18;6.45;;;2.20;;
20511;SDS011;10414;52.074;5.126;2022-07-29T12:17:46;6.00;;;2.30;;
20511;SDS011;10414;52.074;5.126;2022-07-29T12:20:14;6.40;;;2.35;;
20511;SDS011;10414;52.074;5.126;2022-07-29T12:22:48;9.70;;;2.65;;
20511;SDS011;10414;52.074;5.126;2022-07-29T12:25:16;5.28;;;2.40;;
20511;SDS011;10414;52.074;5.126;2022-07-29T12:27:45;4.55;;;2.00;;
20511;SDS011;10414;52.074;5.126;2022-07-29T12:30:12;9.45;;;2.45;;
20511;SDS011;10414;52.074;5.126;2022-07-29T12:32:43;10.90;;;2.65;;
20511;SDS011;10414;52.074;5.126;2022-07-29T12:35:12;7.93;;;2.08;;
20511;SDS011;10414;52.074;5.126;2022-07-29T12:37:41;4.18;;;2.20;;
20511;SDS011;10414;52.074;5.126;2022-07-29T12:40:10;6.28;;;2.70;;
20511;SDS011;10414;52.074;5.126;2022-07-29T12:42:39;6.50;;;2.38;;
20511;SDS011;10414;52.074;5.126;2022-07-29T12:45:08;8.35;;;2.47;;
20511;SDS011;10414;52.074;5.126;2022-07-29T12:47:50;6.00;;;2.60;;
20511;SDS011;10414;52.074;5.126;2022-07-29T12:50:18;7.35;;;2.67;;
20511;SDS011;10414;52.074;5.126;2022-07-29T12:52:46;6.95;;;2.70;;
20511;SDS011;10414;52.074;5.126;2022-07-29T12:55:14;6.75;;;2.38;;
20511;SDS011;10414;52.074;5.126;2022-07-29T12:57:45;7.80;;;2.33;;
20511;SDS011;10414;52.074;5.126;2022-07-29T13:00:14;5.30;;;1.95;;
20511;SDS011;10414;52.074;5.126;2022-07-29T13:02:42;5.75;;;2.13;;
20511;SDS011;10414;52.074;5.126;2022-07-29T13:05:10;7.30;;;2.63;;
20511;SDS011;10414;52.074;5.126;2022-07-29T13:07:39;6.25;;;2.30;;
20511;SDS011;10414;52.074;5.126;2022-07-29T13:10:10;4.00;;;1.95;;
20511;SDS011;10414;52.074;5.126;2022-07-29T13:12:39;6.38;;;2.03;;
20511;SDS011;10414;52.074;5.126;2022-07-29T13:15:36;7.72;;;2.50;;
20511;SDS011;10414;52.074;5.126;2022-07-29T13:18:04;9.63;;;2.97;;
20511;SDS011;10414;52.074;5.126;2022-07-29T13:20:52;8.18;;;2.50;;
20511;SDS011;10414;52.074;5.126;2022-07-29T13:23:19;6.70;;;2.00;;
20511;SDS011;10414;52.074;5.126;2022-07-29T13:25:46;9.02;;;3.50;;
20511;SDS011;10414;52.074;5.126;2022-07-29T13:28:13;6.85;;;2.80;;
20511;SDS011;10414;52.074;5.126;2022-07-29T13:30:42;9.35;;;2.70;;
20511;SDS011;10414;52.074;5.126;2022-07-29T13:33:09;6.43;;;2.20;;
20511;SDS011;10414;52.074;5.126;2022-07-29T13:35:36;5.47;;;2.20;;
20511;SDS011;10414;52.074;5.126;2022-07-29T13:38:04;7.25;;;2.25;;
20511;SDS011;10414;52.074;5.126;2022-07-29T13:40:30;7.68;;;1.90;;
20511;SDS011;10414;52.074;5.126;2022-07-29T13:43:00;7.68;;;2.00;;
20511;SDS011;10414;52.074;5.126;2022-07-29T13:45:27;8.10;;;2.20;;
20511;SDS011;10414;52.074;5.126;2022-07-29T13:47:55;6.93;;;2.53;;
20511;SDS011;10414;52.074;5.126;2022-07-29T13:50:22;5.68;;;2.05;;
20511;SDS011;10414;52.074;5.126;2022-07-29T13:52:49;7.10;;;1.95;;
20511;SDS011;10414;52.074;5.126;2022-07-29T13:55:16;5.65;;;1.95;;
20511;SDS011;10414;52.074;5.126;2022-07-29T13:57:43;5.57;;;1.80;;
20511;SDS011;10414;52.074;5.126;2022-07-29T14:00:10;7.38;;;1.92;;
20511;SDS011;10414;52.074;5.126;2022-07-29T14:02:37;8.05;;;2.00;;
20511;SDS011;10414;52.074;5.126;2022-07-29T14:05:06;6.55;;;2.00;;
20511;SDS011;10414;52.074;5.126;2022-07-29T14:07:34;6.90;;;1.88;;
20511;SDS011;10414;52.074;5.126;2022-07-29T14:10:03;8.18;;;2.05;;
20511;SDS011;10414;52.074;5.126;2022-07-29T14:12:31;7.20;;;1.80;;
20511;SDS011;10414;52.074;5.126;2022-07-29T14:14:59;5.93;;;1.92;;
20511;SDS011;10414;52.074;5.126;2022-07-29T14:17:26;6.85;;;2.08;;
20511;SDS011;10414;52.074;5.126;2022-07-29T14:19:52;5.00;;;1.92;;
20511;SDS011;10414;52.074;5.126;2022-07-29T14:22:21;6.38;;;1.90;;
20511;SDS011;10414;52.074;5.126;2022-07-29T14:24:48;6.45;;;1.77;;
20511;SDS011;10414;52.074;5.126;2022-07-29T14:27:14;6.82;;;2.17;;
20511;SDS011;10414;52.074;5.126;2022-07-29T14:29:41;7.15;;;2.08;;
20511;SDS011;10414;52.074;5.126;2022-07-29T14:32:08;8.38;;;1.60;;
20511;SDS011;10414;52.074;5.126;2022-07-29T14:34:36;6.47;;;1.63;;
20511;SDS011;10414;52.074;5.126;2022-07-29T14:37:07;5.65;;;1.80;;
20511;SDS011;10414;52.074;5.126;2022-07-29T14:39:37;4.00;;;1.67;;
20511;SDS011;10414;52.074;5.126;2022-07-29T14:42:04;5.53;;;1.80;;
20511;SDS011;10414;52.074;5.126;2022-07-29T14:44:31;5.18;;;1.55;;
20511;SDS011;10414;52.074;5.126;2022-07-29T14:46:58;6.15;;;1.80;;
20511;SDS011;10414;52.074;5.126;2022-07-29T14:49:25;7.15;;;1.60;;
20511;SDS011;10414;52.074;5.126;2022-07-29T14:51:52;4.25;;;1.70;;
20511;SDS011;10414;52.074;5.126;2022-07-29T14:54:19;5.68;;;1.88;;
20511;SDS011;10414;52.074;5.126;2022-07-29T14:56:47;5.53;;;1.70;;
20511;SDS011;10414;52.074;5.126;2022-07-29T14:59:15;6.30;;;1.52;;
20511;SDS011;10414;52.074;5.126;2022-07-29T15:01:43;5.55;;;1.55;;
20511;SDS011;10414;52.074;5.126;2022-07-29T15:04:09;5.85;;;1.65;;
20511;SDS011;10414;52.074;5.126;2022-07-29T15:06:36;4.68;;;1.90;;
20511;SDS011;10414;52.074;5.126;2022-07-29T15:09:03;6.30;;;1.80;;
20511;SDS011;10414;52.074;5.126;2022-07-29T15:11:30;5.35;;;1.92;;
20511;SDS011;10414;52.074;5.126;2022-07-29T15:13:58;5.65;;;1.80;;
20511;SDS011;10414;52.074;5.126;2022-07-29T15:16:25;5.07;;;2.10;;
20511;SDS011;10414;52.074;5.126;2022-07-29T15:18:54;6.00;;;1.93;;
20511;SDS011;10414;52.074;5.126;2022-07-29T15:21:22;6.13;;;1.70;;
20511;SDS011;10414;52.074;5.126;2022-07-29T15:23:49;6.38;;;2.35;;
20511;SDS011;10414;52.074;5.126;2022-07-29T15:26:16;7.22;;;2.17;;
20511;SDS011;10414;52.074;5.126;2022-07-29T15:28:44;6.50;;;2.00;;
20511;SDS011;10414;52.074;5.126;2022-07-29T15:31:12;6.13;;;1.83;;
20511;SDS011;10414;52.074;5.126;2022-07-29T15:33:39;5.38;;;2.00;;